createdAt,value
2019-01-29T00:01:16.235Z,96988.13
2019-01-29T00:03:42.983Z,96993.33
2019-01-29T00:06:09.581Z,96995.05
2019-01-29T00:08:36.131Z,96996.78
2019-01-29T00:11:03.250Z,97005.39
2019-01-29T00:13:29.862Z,97004.55
2019-01-29T00:15:56.445Z,97008.86
2019-01-29T00:18:22.951Z,97017.02
2019-01-29T00:20:49.464Z,97015.77
2019-01-29T00:23:15.940Z,97015.80
2019-01-29T00:25:42.585Z,97018.35
2019-01-29T00:28:09.318Z,97024.38
2019-01-29T00:30:35.827Z,97031.66
2019-01-29T00:33:02.432Z,97028.19
2019-01-29T00:35:28.986Z,97028.59
2019-01-29T00:37:55.624Z,97032.88
2019-01-29T00:40:22.614Z,97045.77
2019-01-29T00:42:49.205Z,97047.96
2019-01-29T00:45:16.402Z,97054.39
2019-01-29T00:47:42.980Z,97050.97
2019-01-29T00:50:09.922Z,97055.68
2019-01-29T00:52:41.800Z,97070.75
2019-01-29T00:55:06.688Z,97073.33
2019-01-29T00:57:33.285Z,97082.36
2019-01-29T00:59:59.813Z,97081.94
2019-01-29T01:02:26.284Z,97087.14
2019-01-29T01:04:53.134Z,97088.86
2019-01-29T01:07:19.726Z,97092.72
2019-01-29T01:09:46.514Z,97094.89
2019-01-29T01:12:13.061Z,97112.13
2019-01-29T01:14:39.603Z,97120.72
2019-01-29T01:17:06.168Z,97112.10
2019-01-29T01:19:32.709Z,97125.89
2019-01-29T01:21:59.716Z,97131.45
2019-01-29T01:24:26.231Z,97138.38
2019-01-29T01:26:52.849Z,97137.06
2019-01-29T01:29:20.675Z,97144.38
2019-01-29T01:31:47.486Z,97148.69
2019-01-29T01:34:13.953Z,97148.28
2019-01-29T01:36:40.443Z,97143.55
2019-01-29T01:39:07.744Z,97149.14
2019-01-29T01:41:34.388Z,97158.21
2019-01-29T01:44:00.859Z,97150.44
2019-01-29T01:46:27.730Z,97156.45
2019-01-29T01:48:54.623Z,97159.91
2019-01-29T01:51:21.142Z,97170.25
2019-01-29T01:53:47.666Z,97169.83
2019-01-29T01:56:14.122Z,97164.69
2019-01-29T01:58:40.641Z,97168.14
2019-01-29T02:01:07.195Z,97175.86
2019-01-29T02:03:33.685Z,97170.70
2019-01-29T02:06:00.778Z,97172.41
2019-01-29T02:08:27.650Z,97178.42
2019-01-29T02:10:54.443Z,97187.91
2019-01-29T02:13:20.920Z,97194.81
2019-01-29T02:15:47.466Z,97198.67
2019-01-29T02:18:14.021Z,97200.85
2019-01-29T02:20:40.527Z,97203.41
2019-01-29T02:23:07.974Z,97200.41
2019-01-29T02:25:35.001Z,97207.31
2019-01-29T02:28:01.597Z,97214.61
2019-01-29T02:30:28.153Z,97214.61
2019-01-29T02:32:54.809Z,97217.62
2019-01-29T02:35:21.385Z,97220.19
2019-01-29T02:37:48.901Z,97221.52
2019-01-29T02:40:18.447Z,97225.38
2019-01-29T02:42:44.980Z,97231.42
2019-01-29T02:45:12.677Z,97231.41
2019-01-29T02:47:39.226Z,97233.58
2019-01-29T02:50:06.882Z,97240.91
2019-01-29T02:52:33.417Z,97242.63
2019-01-29T02:55:00.416Z,97244.37
2019-01-29T02:57:26.957Z,97240.47
2019-01-29T02:59:53.468Z,97244.78
2019-01-29T03:02:20.351Z,97250.37
2019-01-29T03:04:46.829Z,97249.98
2019-01-29T03:07:13.494Z,97246.09
2019-01-29T03:09:40.092Z,97248.23
2019-01-29T03:12:06.876Z,97253.39
2019-01-29T03:14:33.700Z,97263.73
2019-01-29T03:17:00.183Z,97267.61
2019-01-29T03:19:26.712Z,97265.05
2019-01-29T03:21:53.611Z,97269.78
2019-01-29T03:24:20.095Z,97272.37
2019-01-29T03:26:46.710Z,97279.25
2019-01-29T03:29:13.314Z,97275.38
2019-01-29T03:31:39.791Z,97279.27
2019-01-29T03:34:06.441Z,97283.16
2019-01-29T03:36:33.068Z,97290.02
2019-01-29T03:38:59.912Z,97287.86
2019-01-29T03:41:26.563Z,97296.03
2019-01-29T03:43:53.184Z,97290.45
2019-01-29T03:46:19.706Z,97298.20
2019-01-29T03:48:46.484Z,97301.61
2019-01-29T03:51:13.132Z,97298.61
2019-01-29T03:53:39.635Z,97297.31
2019-01-29T03:56:06.213Z,97300.74
2019-01-29T03:58:32.712Z,97301.19
2019-01-29T04:00:59.243Z,97300.75
2019-01-29T04:03:25.721Z,97300.75
2019-01-29T04:05:52.285Z,97304.62
2019-01-29T04:08:18.873Z,97304.19
2019-01-29T04:10:45.386Z,97311.50
2019-01-29T04:13:11.853Z,97306.34
2019-01-29T04:15:39.404Z,97305.91
2019-01-29T04:18:05.967Z,97308.06
2019-01-29T04:20:32.471Z,97313.63
2019-01-29T04:22:58.957Z,97313.20
2019-01-29T04:25:25.506Z,97312.75
2019-01-29T04:27:52.434Z,97317.50
2019-01-29T04:30:20.129Z,97327.40
2019-01-29T04:32:46.631Z,97326.08
2019-01-29T04:35:13.837Z,97319.63
2019-01-29T04:37:40.637Z,97333.80
2019-01-29T04:40:09.247Z,97328.23
2019-01-29T04:42:35.707Z,97327.38
2019-01-29T04:45:02.882Z,97328.23
2019-01-29T04:47:29.399Z,97327.82
2019-01-29T04:49:55.967Z,97329.11
2019-01-29T04:52:26.522Z,97331.69
2019-01-29T04:54:53.068Z,97333.81
2019-01-29T04:57:19.560Z,97335.53
2019-01-29T04:59:46.072Z,97331.23
2019-01-29T05:02:12.520Z,97334.72
2019-01-29T05:04:39.356Z,97330.43
2019-01-29T05:07:05.830Z,97336.02
2019-01-29T05:09:32.325Z,97333.04
2019-01-29T05:11:58.781Z,97326.58
2019-01-29T05:14:25.235Z,97332.17
2019-01-29T05:16:51.707Z,97332.61
2019-01-29T05:19:18.303Z,97332.63
2019-01-29T05:21:44.794Z,97329.59
2019-01-29T05:24:11.273Z,97327.44
2019-01-29T05:26:37.732Z,97337.78
2019-01-29T05:29:04.175Z,97332.63
2019-01-29T05:31:30.705Z,97339.51
2019-01-29T05:33:57.295Z,97345.08
2019-01-29T05:36:23.870Z,97351.12
2019-01-29T05:38:50.718Z,97347.23
2019-01-29T05:41:17.276Z,97348.09
2019-01-29T05:43:43.777Z,97353.70
2019-01-29T05:46:10.309Z,97349.81
2019-01-29T05:48:36.784Z,97357.13
2019-01-29T05:51:03.368Z,97361.01
2019-01-29T05:53:29.852Z,97368.33
2019-01-29T05:55:56.337Z,97379.51
2019-01-29T05:58:22.798Z,97372.19
2019-01-29T06:00:49.333Z,97379.08
2019-01-29T06:03:15.836Z,97381.23
2019-01-29T06:05:42.316Z,97385.11
2019-01-29T06:08:08.801Z,97385.98
2019-01-29T06:10:35.287Z,97393.30
2019-01-29T06:13:01.842Z,97401.47
2019-01-29T06:15:28.432Z,97392.00
2019-01-29T06:17:54.945Z,97402.33
2019-01-29T06:20:22.821Z,97393.73
2019-01-29T06:22:49.498Z,97398.89
2019-01-29T06:25:16.388Z,97400.62
2019-01-29T06:27:43.092Z,97401.47
2019-01-29T06:30:10.716Z,97408.80
2019-01-29T06:32:37.218Z,97404.05
2019-01-29T06:35:04.579Z,97410.08
2019-01-29T06:37:35.119Z,97405.78
2019-01-29T06:40:01.795Z,97398.90
2019-01-29T06:42:28.513Z,97409.64
2019-01-29T06:44:55.036Z,97404.93
2019-01-29T06:47:21.867Z,97415.26
2019-01-29T06:49:48.357Z,97419.55
2019-01-29T06:52:14.868Z,97420.86
2019-01-29T06:54:41.423Z,97429.47
2019-01-29T06:57:08.025Z,97432.47
2019-01-29T06:59:34.468Z,97435.05
2019-01-29T07:02:01.307Z,97435.51
2019-01-29T07:04:27.828Z,97434.64
2019-01-29T07:06:54.437Z,97433.36
2019-01-29T07:09:20.891Z,97430.75
2019-01-29T07:11:59.145Z,97432.47
2019-01-29T07:14:25.828Z,97433.77
2019-01-29T07:17:05.333Z,97435.05
2019-01-29T07:19:38.006Z,97438.09
2019-01-29T07:22:04.683Z,97432.03
2019-01-29T07:24:31.195Z,97440.23
2019-01-29T07:26:57.659Z,97439.79
2019-01-29T07:29:25.209Z,97444.12
2019-01-29T07:31:52.886Z,97444.53
2019-01-29T07:34:19.365Z,97459.59
2019-01-29T07:36:45.850Z,97469.52
2019-01-29T07:39:12.492Z,97475.55
2019-01-29T07:41:38.987Z,97479.84
2019-01-29T07:44:05.889Z,97491.91
2019-01-29T07:46:32.635Z,97490.18
2019-01-29T07:48:59.216Z,97490.18
2019-01-29T07:51:25.814Z,97492.35
2019-01-29T07:53:52.418Z,97494.94
2019-01-29T07:56:19.045Z,97492.34
2019-01-29T07:58:45.790Z,97494.48
2019-01-29T08:01:12.456Z,97500.53
2019-01-29T08:03:38.946Z,97500.09
2019-01-29T08:06:05.456Z,97496.20
2019-01-29T08:08:31.952Z,97497.94
2019-01-29T08:10:58.523Z,97496.19
2019-01-29T08:13:25.101Z,97487.55
2019-01-29T08:15:53.810Z,97495.30
2019-01-29T08:18:20.714Z,97493.14
2019-01-29T08:20:47.358Z,97491.39
2019-01-29T08:23:13.873Z,97488.77
2019-01-29T08:25:47.683Z,97490.91
2019-01-29T08:28:08.845Z,97500.77
2019-01-29T08:30:35.541Z,97499.84
2019-01-29T08:33:02.068Z,97504.08
2019-01-29T08:35:28.656Z,97508.84
2019-01-29T08:37:55.221Z,97508.00
2019-01-29T08:40:23.183Z,97508.42
2019-01-29T08:42:49.715Z,97509.72
2019-01-29T08:45:16.328Z,97513.17
2019-01-29T08:47:43.279Z,97512.33
2019-01-29T08:50:13.057Z,97510.22
2019-01-29T08:52:39.620Z,97508.06
2019-01-29T08:55:10.713Z,97503.77
2019-01-29T08:57:35.159Z,97513.70
2019-01-29T09:00:03.784Z,97508.95
2019-01-29T09:02:30.304Z,97513.70
2019-01-29T09:04:56.952Z,97515.00
2019-01-29T09:07:23.499Z,97517.56
2019-01-29T09:09:50.180Z,97521.02
2019-01-29T09:12:16.773Z,97512.39
2019-01-29T09:14:43.291Z,97527.03
2019-01-29T09:17:09.800Z,97520.52
2019-01-29T09:19:36.354Z,97515.72
2019-01-29T09:22:02.961Z,97512.25
2019-01-29T09:24:29.554Z,97517.84
2019-01-29T09:26:56.383Z,97510.02
2019-01-29T09:29:22.855Z,97514.72
2019-01-29T09:31:49.395Z,97515.97
2019-01-29T09:34:16.948Z,97517.66
2019-01-29T09:36:43.492Z,97513.77
2019-01-29T09:39:10.345Z,97514.17
2019-01-29T09:41:37.013Z,97513.33
2019-01-29T09:44:03.701Z,97510.33
2019-01-29T09:46:30.413Z,97511.95
2019-01-29T09:48:57.698Z,97510.95
2019-01-29T09:51:24.236Z,97506.62
2019-01-29T09:53:51.025Z,97500.55
2019-01-29T09:56:17.755Z,97501.37
2019-01-29T09:58:44.319Z,97503.95
2019-01-29T10:01:10.870Z,97510.44
2019-01-29T10:03:41.903Z,97507.92
2019-01-29T10:06:09.592Z,97506.62
2019-01-29T10:08:36.335Z,97499.28
2019-01-29T10:11:02.908Z,97497.96
2019-01-29T10:13:29.770Z,97502.27
2019-01-29T10:15:56.459Z,97501.44
2019-01-29T10:18:22.990Z,97500.53
2019-01-29T10:20:49.565Z,97503.63
2019-01-29T10:23:17.444Z,97500.22
2019-01-29T10:25:44.023Z,97504.14
2019-01-29T10:28:10.619Z,97499.73
2019-01-29T10:30:37.317Z,97501.02
2019-01-29T10:33:03.777Z,97499.33
2019-01-29T10:35:30.442Z,97497.62
2019-01-29T10:37:57.049Z,97490.27
2019-01-29T10:40:24.302Z,97495.37
2019-01-29T10:42:51.397Z,97483.73
2019-01-29T10:45:18.643Z,97487.14
2019-01-29T10:47:45.192Z,97486.29
2019-01-29T10:50:15.802Z,97481.09
2019-01-29T10:52:42.900Z,97473.70
2019-01-29T10:55:09.593Z,97483.17
2019-01-29T10:57:37.134Z,97480.63
2019-01-29T11:00:15.054Z,97477.63
2019-01-29T11:02:49.829Z,97472.41
2019-01-29T11:05:24.615Z,97470.62
2019-01-29T11:07:51.591Z,97478.01
2019-01-29T11:10:18.761Z,97475.02
2019-01-29T11:12:45.358Z,97478.09
2019-01-29T11:15:15.039Z,97471.60
2019-01-29T11:17:41.552Z,97468.56
2019-01-29T11:20:10.845Z,97467.30
2019-01-29T11:22:37.581Z,97469.43
2019-01-29T11:25:06.942Z,97463.31
2019-01-29T11:27:33.608Z,97468.45
2019-01-29T11:30:00.266Z,97462.87
2019-01-29T11:32:27.056Z,97461.98
2019-01-29T11:34:53.545Z,97456.27
2019-01-29T11:37:20.358Z,97457.58
2019-01-29T11:39:46.803Z,97463.17
2019-01-29T11:42:13.530Z,97457.58
2019-01-29T11:44:40.286Z,97457.02
2019-01-29T11:47:07.121Z,97457.70
2019-01-29T11:49:33.619Z,97453.74
2019-01-29T11:52:00.241Z,97454.27
2019-01-29T11:54:26.764Z,97450.58
2019-01-29T11:56:53.735Z,97456.69
2019-01-29T11:59:20.214Z,97457.72
2019-01-29T12:01:46.656Z,97461.20
2019-01-29T12:04:13.272Z,97457.70
2019-01-29T12:06:40.163Z,97452.52
2019-01-29T12:09:12.686Z,97455.08
2019-01-29T12:11:39.674Z,97459.66
2019-01-29T12:14:06.511Z,97450.46
2019-01-29T12:16:34.235Z,97447.41
2019-01-29T12:19:00.839Z,97446.20
2019-01-29T12:21:27.606Z,97436.64
2019-01-29T12:23:56.128Z,97433.98
2019-01-29T12:26:23.368Z,97430.75
2019-01-29T12:28:49.875Z,97434.52
2019-01-29T12:31:16.473Z,97432.98
2019-01-29T12:33:42.990Z,97430.45
2019-01-29T12:36:09.517Z,97427.48
2019-01-29T12:38:36.145Z,97426.72
2019-01-29T12:41:04.056Z,97424.91
2019-01-29T12:43:30.698Z,97420.46
2019-01-29T12:45:57.252Z,97418.86
2019-01-29T12:48:24.000Z,97424.11
2019-01-29T12:50:57.477Z,97419.33
2019-01-29T12:53:29.236Z,97419.80
2019-01-29T12:55:55.774Z,97421.09
2019-01-29T12:58:22.289Z,97413.86
2019-01-29T13:00:56.746Z,97413.84
2019-01-29T13:03:23.352Z,97416.45
2019-01-29T13:05:50.402Z,97415.75
2019-01-29T13:08:17.295Z,97417.95
2019-01-29T13:10:43.766Z,97413.34
2019-01-29T13:13:13.868Z,97412.46
2019-01-29T13:15:40.469Z,97407.69
2019-01-29T13:18:08.161Z,97410.70
2019-01-29T13:20:34.811Z,97407.24
2019-01-29T13:23:01.541Z,97403.74
2019-01-29T13:25:28.031Z,97398.53
2019-01-29T13:27:54.726Z,97399.06
2019-01-29T13:30:32.287Z,97399.20
2019-01-29T13:33:06.452Z,97399.66
2019-01-29T13:35:47.517Z,97393.56
2019-01-29T13:38:22.500Z,97384.81
2019-01-29T13:40:49.149Z,97382.48
2019-01-29T13:43:15.856Z,97376.48
2019-01-29T13:45:42.583Z,97371.94
2019-01-29T13:48:09.161Z,97374.63
2019-01-29T13:51:10.117Z,97369.39
2019-01-29T13:53:37.183Z,97377.23
2019-01-29T13:56:03.914Z,97374.56
2019-01-29T13:58:30.880Z,97372.42
2019-01-29T14:00:57.527Z,97369.92
2019-01-29T14:03:24.268Z,97368.69
2019-01-29T14:05:52.872Z,97367.39
2019-01-29T14:08:19.405Z,97375.27
2019-01-29T14:10:46.162Z,97375.86
2019-01-29T14:13:15.611Z,97372.95
2019-01-29T14:15:55.890Z,97371.77
2019-01-29T14:18:24.746Z,97365.33
2019-01-29T14:20:51.644Z,97369.22
2019-01-29T14:23:18.283Z,97366.99
2019-01-29T14:25:45.988Z,97363.14
2019-01-29T14:28:22.623Z,97357.91
2019-01-29T14:30:49.375Z,97361.77
2019-01-29T14:33:16.622Z,97362.58
2019-01-29T14:35:43.186Z,97362.11
2019-01-29T14:38:55.019Z,97357.86
2019-01-29T14:41:21.978Z,97360.53
2019-01-29T14:43:54.438Z,97359.33
2019-01-29T14:46:21.621Z,97356.72
2019-01-29T14:48:48.842Z,97354.17
2019-01-29T14:51:16.855Z,97345.54
2019-01-29T14:53:43.348Z,97348.56
2019-01-29T14:56:16.192Z,97345.10
2019-01-29T14:58:51.896Z,97333.02
2019-01-29T15:01:27.929Z,97343.02
2019-01-29T15:04:02.771Z,97341.34
2019-01-29T15:06:35.732Z,97339.22
2019-01-29T15:09:08.197Z,97337.14
2019-01-29T15:11:42.339Z,97338.05
2019-01-29T15:14:12.938Z,97333.33
2019-01-29T15:17:05.717Z,97334.15
2019-01-29T15:19:40.266Z,97335.00
2019-01-29T15:22:07.949Z,97328.50
2019-01-29T15:24:36.237Z,97330.63
2019-01-29T15:27:06.343Z,97330.61
2019-01-29T15:29:33.817Z,97324.55
2019-01-29T15:32:01.056Z,97327.20
2019-01-29T15:34:30.530Z,97327.23
2019-01-29T15:36:58.377Z,97328.98
2019-01-29T15:39:30.149Z,97326.88
2019-01-29T15:42:04.584Z,97325.25
2019-01-29T15:44:33.518Z,97322.78
2019-01-29T15:47:00.145Z,97329.34
2019-01-29T15:49:28.642Z,97328.56
2019-01-29T15:51:58.751Z,97332.10
2019-01-29T15:54:25.556Z,97335.64
2019-01-29T15:56:54.787Z,97332.25
2019-01-29T15:59:21.574Z,97327.55
2019-01-29T16:01:48.301Z,97324.55
2019-01-29T16:04:15.217Z,97330.18
2019-01-29T16:06:41.862Z,97326.34
2019-01-29T16:09:08.729Z,97328.95
2019-01-29T16:11:35.249Z,97320.38
2019-01-29T16:14:01.714Z,97322.12
2019-01-29T16:16:28.234Z,97320.41
2019-01-29T16:18:58.004Z,97320.88
2019-01-29T16:21:27.660Z,97320.50
2019-01-29T16:23:54.479Z,97317.92
2019-01-29T16:26:21.176Z,97320.97
2019-01-29T16:28:47.721Z,97327.02
2019-01-29T16:31:14.364Z,97325.30
2019-01-29T16:33:40.860Z,97324.44
2019-01-29T16:36:07.617Z,97325.73
2019-01-29T16:38:34.093Z,97327.45
2019-01-29T16:41:02.729Z,97324.86
2019-01-29T16:43:29.231Z,97324.88
2019-01-29T16:45:57.625Z,97324.02
2019-01-29T16:48:24.150Z,97327.43
2019-01-29T16:50:50.684Z,97318.84
2019-01-29T16:53:17.434Z,97319.27
2019-01-29T16:55:44.320Z,97319.70
2019-01-29T16:58:10.857Z,97317.98
2019-01-29T17:00:38.045Z,97315.41
2019-01-29T17:03:07.706Z,97313.66
2019-01-29T17:05:36.983Z,97300.78
2019-01-29T17:08:06.011Z,97302.50
2019-01-29T17:10:36.386Z,97302.94
2019-01-29T17:13:06.745Z,97301.63
2019-01-29T17:15:35.850Z,97296.89
2019-01-29T17:18:05.867Z,97290.46
2019-01-29T17:20:37.137Z,97290.45
2019-01-29T17:23:06.723Z,97287.87
2019-01-29T17:25:35.696Z,97283.12
2019-01-29T17:28:04.779Z,97292.14
2019-01-29T17:30:41.757Z,97286.96
2019-01-29T17:33:09.501Z,97278.36
2019-01-29T17:35:37.600Z,97283.96
2019-01-29T17:38:07.586Z,97285.23
2019-01-29T17:40:36.976Z,97287.40
2019-01-29T17:43:07.128Z,97279.69
2019-01-29T17:45:39.042Z,97280.08
2019-01-29T17:48:06.106Z,97282.23
2019-01-29T17:50:37.328Z,97274.93
2019-01-29T17:53:05.258Z,97275.37
2019-01-29T17:55:36.186Z,97274.06
2019-01-29T17:58:05.943Z,97269.77
2019-01-29T18:00:35.121Z,97262.91
2019-01-29T18:03:05.056Z,97265.91
2019-01-29T18:05:35.063Z,97259.88
2019-01-29T18:08:01.703Z,97253.01
2019-01-29T18:10:28.736Z,97247.85
2019-01-29T18:12:58.294Z,97246.12
2019-01-29T18:15:26.111Z,97246.55
2019-01-29T18:17:54.943Z,97244.84
2019-01-29T18:20:21.653Z,97238.38
2019-01-29T18:22:48.254Z,97237.98
2019-01-29T18:25:18.102Z,97237.55
2019-01-29T18:28:00.648Z,97235.41
2019-01-29T18:30:21.536Z,97235.81
2019-01-29T18:32:50.113Z,97233.66
2019-01-29T18:35:17.084Z,97235.36
2019-01-29T18:37:46.777Z,97230.22
2019-01-29T18:40:35.890Z,97222.91
2019-01-29T18:43:05.671Z,97227.67
2019-01-29T18:45:43.866Z,97220.78
2019-01-29T18:48:19.047Z,97219.50
2019-01-29T18:50:45.601Z,97207.44
2019-01-29T18:53:15.043Z,97208.75
2019-01-29T18:55:44.746Z,97202.28
2019-01-29T18:58:17.426Z,97207.01
2019-01-29T19:00:54.291Z,97199.25
2019-01-29T19:03:26.038Z,97201.41
2019-01-29T19:05:53.178Z,97198.84
2019-01-29T19:08:20.053Z,97192.38
2019-01-29T19:10:46.812Z,97192.78
2019-01-29T19:13:15.806Z,97183.33
2019-01-29T19:16:00.769Z,97190.20
2019-01-29T19:18:45.377Z,97182.45
2019-01-29T19:21:15.074Z,97180.73
2019-01-29T19:23:41.824Z,97182.47
2019-01-29T19:26:08.428Z,97178.58
2019-01-29T19:28:35.422Z,97176.87
2019-01-29T19:31:04.753Z,97175.14
2019-01-29T19:33:30.795Z,97163.95
2019-01-29T19:35:57.559Z,97169.97
2019-01-29T19:38:24.193Z,97171.25
2019-01-29T19:40:50.774Z,97172.11
2019-01-29T19:43:17.409Z,97161.34
2019-01-29T19:45:44.118Z,97153.58
2019-01-29T19:48:10.996Z,97159.59
2019-01-29T19:50:37.694Z,97151.85
2019-01-29T19:53:04.204Z,97153.54
2019-01-29T19:55:30.665Z,97147.95
2019-01-29T19:58:08.356Z,97149.27
2019-01-29T20:00:34.736Z,97152.70
2019-01-29T20:03:01.468Z,97147.53
2019-01-29T20:05:28.031Z,97146.67
2019-01-29T20:07:54.630Z,97145.84
2019-01-29T20:10:21.449Z,97138.97
2019-01-29T20:12:48.139Z,97139.45
2019-01-29T20:15:15.681Z,97134.29
2019-01-29T20:17:42.382Z,97133.42
2019-01-29T20:20:12.208Z,97134.30
2019-01-29T20:22:39.859Z,97129.58
2019-01-29T20:25:06.890Z,97131.73
2019-01-29T20:27:33.427Z,97129.58
2019-01-29T20:29:59.976Z,97124.41
2019-01-29T20:32:26.578Z,97123.98
2019-01-29T20:34:53.326Z,97121.40
2019-01-29T20:37:19.811Z,97120.12
2019-01-29T20:39:46.364Z,97117.11
2019-01-29T20:42:12.886Z,97113.68
2019-01-29T20:44:39.774Z,97110.25
2019-01-29T20:47:06.531Z,97113.70
2019-01-29T20:49:33.058Z,97109.39
2019-01-29T20:51:59.812Z,97104.66
2019-01-29T20:54:26.338Z,97101.65
2019-01-29T20:56:52.806Z,97100.79
2019-01-29T20:59:19.459Z,97091.76
2019-01-29T21:01:48.864Z,97098.20
2019-01-29T21:04:16.620Z,97090.50
2019-01-29T21:06:43.448Z,97090.07
2019-01-29T21:09:09.963Z,97090.09
2019-01-29T21:11:36.589Z,97086.22
2019-01-29T21:14:03.373Z,97087.95
2019-01-29T21:16:29.958Z,97073.77
2019-01-29T21:18:56.807Z,97066.02
2019-01-29T21:21:23.699Z,97069.92
2019-01-29T21:23:50.483Z,97061.74
2019-01-29T21:26:17.918Z,97061.34
2019-01-29T21:28:44.473Z,97056.20
2019-01-29T21:31:11.751Z,97055.75
2019-01-29T21:33:38.460Z,97056.61
2019-01-29T21:36:05.157Z,97053.20
2019-01-29T21:38:32.046Z,97059.63
2019-01-29T21:41:02.192Z,97058.80
2019-01-29T21:43:29.425Z,97050.63
2019-01-29T21:45:56.255Z,97045.91
2019-01-29T21:48:22.898Z,97043.31
2019-01-29T21:50:49.653Z,97040.77
2019-01-29T21:53:17.313Z,97040.77
2019-01-29T21:55:44.510Z,97032.16
2019-01-29T21:58:11.078Z,97030.86
2019-01-29T22:00:43.593Z,97027.44
2019-01-29T22:03:11.271Z,97030.41
2019-01-29T22:05:37.924Z,97025.27
2019-01-29T22:08:06.677Z,97020.57
2019-01-29T22:10:41.854Z,97019.71
2019-01-29T22:13:09.649Z,97014.13
2019-01-29T22:15:36.339Z,97007.25
2019-01-29T22:18:05.578Z,97001.67
2019-01-29T22:20:35.046Z,97005.13
2019-01-29T22:23:03.914Z,97005.11
2019-01-29T22:25:30.695Z,97003.38
2019-01-29T22:27:57.964Z,96999.52
2019-01-29T22:30:27.106Z,96996.09
2019-01-29T22:32:55.588Z,96996.52
2019-01-29T22:35:25.290Z,97002.09
2019-01-29T22:37:53.947Z,96991.78
2019-01-29T22:40:23.826Z,97001.69
2019-01-29T22:42:50.849Z,97005.53
2019-01-29T22:45:17.542Z,96999.97
2019-01-29T22:47:53.749Z,96995.23
2019-01-29T22:50:28.180Z,96998.27
2019-01-29T22:52:55.088Z,96984.50
2019-01-29T22:55:25.305Z,96987.50
2019-01-29T22:57:55.051Z,96984.94
2019-01-29T23:00:33.796Z,96982.80
2019-01-29T23:03:00.308Z,96981.06
2019-01-29T23:05:26.912Z,96978.06
2019-01-29T23:07:53.516Z,96981.08
2019-01-29T23:10:20.406Z,96976.37
2019-01-29T23:12:47.354Z,96967.35
2019-01-29T23:15:15.291Z,96968.20
2019-01-29T23:17:41.878Z,96966.05
2019-01-29T23:20:09.461Z,96964.77
2019-01-29T23:22:35.971Z,96957.06
2019-01-29T23:25:07.026Z,96958.78
2019-01-29T23:27:33.555Z,96951.05
2019-01-29T23:30:00.197Z,96947.61
2019-01-29T23:32:26.796Z,96937.75
2019-01-29T23:34:53.370Z,96939.05
2019-01-29T23:37:19.890Z,96942.45
2019-01-29T23:39:53.250Z,96944.18
2019-01-29T23:42:19.728Z,96935.59
2019-01-29T23:44:46.574Z,96933.02
2019-01-29T23:47:13.333Z,96925.31
2019-01-29T23:49:39.864Z,96925.31
2019-01-29T23:52:06.499Z,96915.00
2019-01-29T23:54:33.077Z,96915.43
2019-01-29T23:56:59.605Z,96911.99
2019-01-29T23:59:26.170Z,96912.87
